createdAt,value
2022-08-26T15:24:00.179Z,22.30
2022-08-26T15:26:29.834Z,22.35
2022-08-26T15:28:58.384Z,21.55
2022-08-26T15:31:31.487Z,22.04
2022-08-26T15:34:07.548Z,23.08
2022-08-26T15:36:37.739Z,24.16
2022-08-26T15:39:07.330Z,25.25
2022-08-26T15:41:35.048Z,26.64
2022-08-26T15:44:03.821Z,27.43
2022-08-26T15:46:32.103Z,28.48
2022-08-26T15:49:00.148Z,29.65
2022-08-26T15:51:31.894Z,30.08
2022-08-26T15:53:59.895Z,30.38
2022-08-26T15:56:31.186Z,30.11
2022-08-26T15:59:00.409Z,30.26
2022-08-26T16:01:28.822Z,30.53
2022-08-26T16:03:56.849Z,30.72
2022-08-26T16:06:31.768Z,31.54
2022-08-26T16:08:58.941Z,31.85
2022-08-26T16:11:27.437Z,32.66
2022-08-26T16:13:55.146Z,33.16
2022-08-26T16:16:22.547Z,34.21
2022-08-26T16:18:49.982Z,35.03
2022-08-26T16:21:25.029Z,35.08
2022-08-26T16:23:52.498Z,34.93
2022-08-26T16:26:27.255Z,35.18
2022-08-26T16:28:54.888Z,35.07
2022-08-26T16:31:22.389Z,34.40
2022-08-26T16:33:49.729Z,33.17
2022-08-26T16:36:19.140Z,31.83
2022-08-26T16:38:55.175Z,31.26
2022-08-26T16:41:25.165Z,32.01
2022-08-26T16:43:52.961Z,33.22
2022-08-26T16:46:22.220Z,33.84
2022-08-26T16:48:49.557Z,34.71
2022-08-26T16:51:24.382Z,35.36
2022-08-26T16:53:52.460Z,35.76
2022-08-26T16:56:33.626Z,35.85
2022-08-26T16:59:07.002Z,36.23
2022-08-26T17:01:34.618Z,36.81
2022-08-26T17:04:01.773Z,37.87
2022-08-26T17:06:29.786Z,37.89
2022-08-26T17:08:57.085Z,37.14
2022-08-26T17:11:24.403Z,36.75
2022-08-26T17:13:51.555Z,36.19
2022-08-26T17:16:20.429Z,36.75
2022-08-26T17:18:49.394Z,37.40
2022-08-26T17:21:16.974Z,38.00
2022-08-26T17:23:44.688Z,38.22
2022-08-26T17:26:12.617Z,38.28
2022-08-26T17:28:39.984Z,38.60
2022-08-26T17:31:09.446Z,39.00
2022-08-26T17:33:37.777Z,38.86
2022-08-26T17:36:07.080Z,39.42
2022-08-26T17:38:35.047Z,39.46
2022-08-26T17:41:02.143Z,39.96
2022-08-26T17:43:29.303Z,40.26
2022-08-26T17:46:07.223Z,40.92
2022-08-26T17:48:36.846Z,41.54
2022-08-26T17:51:13.749Z,41.92
2022-08-26T17:53:41.849Z,42.19
2022-08-26T17:56:13.063Z,42.77
2022-08-26T17:58:40.865Z,43.72
2022-08-26T18:01:15.550Z,43.79
2022-08-26T18:03:42.938Z,43.61
2022-08-26T18:06:12.242Z,44.04
2022-08-26T18:08:40.949Z,43.96
2022-08-26T18:11:20.714Z,44.31
2022-08-26T18:13:48.221Z,44.85
2022-08-26T18:16:18.778Z,45.15
2022-08-26T18:18:48.733Z,45.09
2022-08-26T18:21:26.525Z,45.20
2022-08-26T18:23:55.077Z,44.93
2022-08-26T18:26:36.319Z,44.86
2022-08-26T18:29:04.789Z,45.28
2022-08-26T18:31:32.454Z,45.25
2022-08-26T18:34:01.648Z,45.74
2022-08-26T18:36:34.684Z,46.21
2022-08-26T18:39:04.800Z,47.33
2022-08-26T18:41:38.405Z,48.67
2022-08-26T18:44:05.471Z,49.29
2022-08-26T18:46:32.706Z,50.28
2022-08-26T18:48:59.979Z,51.07
2022-08-26T18:51:31.047Z,52.27
2022-08-26T18:54:00.538Z,52.47
2022-08-26T18:56:28.653Z,52.40
2022-08-26T18:58:55.780Z,52.53
2022-08-26T19:01:27.213Z,53.20
2022-08-26T19:03:59.441Z,53.86
2022-08-26T19:06:32.777Z,55.38
2022-08-26T19:09:00.700Z,55.73
2022-08-26T19:11:31.821Z,55.97
2022-08-26T19:14:06.581Z,55.93
2022-08-26T19:16:34.251Z,56.10
2022-08-26T19:19:02.071Z,55.47
2022-08-26T19:21:30.073Z,55.06
2022-08-26T19:24:00.313Z,56.34
2022-08-26T19:26:28.730Z,56.58
2022-08-26T19:28:56.699Z,56.99
2022-08-26T19:31:24.057Z,58.04
2022-08-26T19:33:51.301Z,58.09
2022-08-26T19:36:22.519Z,58.24
2022-08-26T19:38:51.034Z,58.28
2022-08-26T19:41:31.663Z,58.42
2022-08-26T19:44:35.201Z,58.44
2022-08-26T19:47:03.746Z,57.76
2022-08-26T19:49:32.029Z,57.59
2022-08-26T19:51:59.461Z,57.06
2022-08-26T19:54:27.185Z,57.71
2022-08-26T19:56:54.627Z,56.99
2022-08-26T19:59:21.802Z,57.63
2022-08-26T20:01:55.181Z,58.34
2022-08-26T20:04:31.145Z,58.77
2022-08-26T20:07:00.690Z,59.59
2022-08-26T20:09:34.130Z,60.65
2022-08-26T20:12:03.057Z,60.45
2022-08-26T20:14:30.634Z,59.83
2022-08-26T20:16:58.225Z,59.67
2022-08-26T20:19:44.158Z,59.63
2022-08-26T20:22:12.900Z,60.33
2022-08-26T20:24:40.437Z,60.18
2022-08-26T20:27:08.206Z,59.67
2022-08-26T20:29:36.667Z,58.43
2022-08-26T20:32:06.105Z,57.70
2022-08-26T20:34:34.899Z,57.66
2022-08-26T20:37:02.784Z,57.71
2022-08-26T20:39:30.080Z,58.53
2022-08-26T20:41:58.113Z,57.51
2022-08-26T20:44:25.796Z,57.70
2022-08-26T20:46:53.040Z,57.61
2022-08-26T20:49:20.189Z,57.91
2022-08-26T20:51:52.510Z,57.14
2022-08-26T20:54:26.201Z,57.62
2022-08-26T20:56:57.272Z,57.50
2022-08-26T20:59:25.375Z,57.48
2022-08-26T21:01:53.188Z,57.88
2022-08-26T21:04:23.553Z,57.77
2022-08-26T21:06:52.671Z,58.06
2022-08-26T21:09:23.008Z,58.13
2022-08-26T21:11:51.498Z,57.98
2022-08-26T21:14:20.670Z,57.88
2022-08-26T21:16:47.896Z,58.04
2022-08-26T21:19:18.333Z,58.91
2022-08-26T21:21:47.858Z,59.53
2022-08-26T21:24:15.343Z,59.81
2022-08-26T21:26:42.799Z,60.75
2022-08-26T21:29:10.159Z,60.60
2022-08-26T21:31:43.531Z,60.25
2022-08-26T21:34:14.229Z,60.39
2022-08-26T21:36:41.960Z,60.60
2022-08-26T21:39:12.067Z,60.50
2022-08-26T21:41:41.523Z,60.33
2022-08-26T21:44:10.162Z,60.21
2022-08-26T21:46:37.422Z,60.16
2022-08-26T21:49:08.861Z,59.76
2022-08-26T21:51:46.052Z,59.88
2022-08-26T21:54:14.073Z,61.05
2022-08-26T21:56:47.132Z,60.31
2022-08-26T21:59:17.927Z,60.57
2022-08-26T22:01:45.795Z,60.19
2022-08-26T22:04:13.595Z,60.87
2022-08-26T22:06:47.949Z,60.67
2022-08-26T22:09:19.575Z,59.94
2022-08-26T22:11:47.602Z,59.95
2022-08-26T22:14:16.162Z,60.05
2022-08-26T22:16:46.840Z,59.93
2022-08-26T22:19:20.116Z,59.64
2022-08-26T22:21:51.955Z,59.11
2022-08-26T22:24:22.474Z,58.45
2022-08-26T22:26:50.065Z,57.67
2022-08-26T22:29:18.838Z,57.63
2022-08-26T22:31:46.526Z,57.76
2022-08-26T22:34:17.246Z,58.07
2022-08-26T22:36:48.953Z,58.48
2022-08-26T22:39:21.213Z,57.94
2022-08-26T22:41:49.643Z,58.37
2022-08-26T22:44:18.371Z,58.32
2022-08-26T22:46:46.995Z,58.28
2022-08-26T22:49:18.000Z,57.99
2022-08-26T22:51:46.637Z,58.18
2022-08-26T22:54:15.194Z,58.20
2022-08-26T22:56:44.683Z,58.56
2022-08-26T22:59:13.055Z,58.73
2022-08-26T23:01:42.688Z,59.24
2022-08-26T23:04:11.096Z,58.75
2022-08-26T23:06:43.072Z,58.97
2022-08-26T23:09:11.158Z,58.55
2022-08-26T23:11:39.865Z,59.00
2022-08-26T23:14:10.193Z,59.18
2022-08-26T23:16:41.551Z,59.33
2022-08-26T23:19:12.952Z,59.42
2022-08-26T23:21:40.403Z,59.06
2022-08-26T23:24:08.564Z,59.27
2022-08-26T23:26:36.910Z,59.75
2022-08-26T23:29:06.524Z,59.31
2022-08-26T23:31:34.035Z,59.33
2022-08-26T23:34:19.665Z,59.67
2022-08-26T23:36:47.374Z,59.92
2022-08-26T23:39:15.394Z,60.13
2022-08-26T23:41:42.843Z,60.01
2022-08-26T23:44:13.160Z,59.84
2022-08-26T23:46:40.353Z,59.20
2022-08-26T23:49:07.419Z,59.22
2022-08-26T23:51:53.242Z,58.75
2022-08-26T23:54:20.569Z,59.27
2022-08-26T23:56:47.695Z,59.56
2022-08-26T23:59:15.597Z,58.93
